^^
Your Local Weather - Clay, NY Station Historical Data
Daily Summary for March 20, 2017 Units:  Metric    English   Both
« Previous Day
Next Day »
Daily Weekly Monthly Yearly Custom
  High: Low: Average:
Temperature: 4.7 °C -8.2 °C -1.2 °C
Dew Point: -1.5 °C -9.7 °C -4.6 °C
Humidity: 91% 63% 79%
Wind Speed: 4.8km/h 0km/h 0.5km/h
Wind Gust: 9.7km/h - -
Wind- - SW
Pressure: 1023.9 hPa 1015.8 hPa -
Precipitation: 0 mm    
Historical Graphs
 
 
Tabular Data for March 20, 2017
Time Temperature Dew Point Pressure Wind Wind Speed Wind Gust Humidity Rainfall Rate (Hourly) solar
00:02 -4.4 °C -6.6 °C 1023.9 hPa Calm     85% 0 mm 0 W/m2
00:08 -4.4 °C -6.6 °C 1023.9 hPa Calm     85% 0 mm 0 W/m2
00:14 -4.5 °C -6.7 °C 1023.6 hPa Calm     85% 0 mm 0 W/m2
00:20 -4.6 °C -6.7 °C 1023.6 hPa Calm     85% 0 mm 0 W/m2
00:26 -4.6 °C -6.6 °C 1023.6 hPa Calm     86% 0 mm 0 W/m2
00:32 -4.4 °C -6.4 °C 1023.6 hPa Calm     86% 0 mm 0 W/m2
00:38 -4.7 °C -6.7 °C 1023.6 hPa Calm     86% 0 mm 0 W/m2
00:44 -4.7 °C -6.7 °C 1023.6 hPa Calm     86% 0 mm 0 W/m2
00:50 -4.8 °C -6.8 °C 1023.6 hPa Calm     86% 0 mm 0 W/m2
00:56 -5.1 °C -7.1 °C 1023.6 hPa Calm     86% 0 mm 0 W/m2
01:02 -5.3 °C -7.3 °C 1023.6 hPa Calm     86% 0 mm 0 W/m2
01:08 -5.6 °C -7.5 °C 1023.6 hPa Calm     86% 0 mm 0 W/m2
01:14 -5.7 °C -7.7 °C 1023.6 hPa Calm     86% 0 mm 0 W/m2
01:20 -5.9 °C -7.8 °C 1023.2 hPa Calm     86% 0 mm 0 W/m2
01:26 -6.1 °C -8 °C 1023.2 hPa Calm     86% 0 mm 0 W/m2
01:32 -6.2 °C -8 °C 1023.2 hPa Calm     87% 0 mm 0 W/m2
01:38 -6.3 °C -8.1 °C 1023.2 hPa Calm     87% 0 mm 0 W/m2
01:44 -6.3 °C -8.1 °C 1022.9 hPa Calm     87% 0 mm 0 W/m2
01:50 -6.2 °C -8.1 °C 1022.9 hPa Calm     87% 0 mm 0 W/m2
02:03 -6.4 °C -8.2 °C 1022.9 hPa Calm     87% 0 mm 0 W/m2
02:08 -6.6 °C -8.3 °C 1022.9 hPa Calm     87% 0 mm 0 W/m2
02:14 -6.7 °C -8.5 °C 1022.9 hPa Calm     87% 0 mm 0 W/m2
02:20 -6.9 °C -8.7 °C 1022.9 hPa Calm     87% 0 mm 0 W/m2
02:26 -7 °C -8.8 °C 1022.6 hPa Calm     87% 0 mm 0 W/m2
02:32 -7 °C -8.7 °C 1022.6 hPa Calm     88% 0 mm 0 W/m2
02:38 -7.2 °C -8.8 °C 1022.6 hPa Calm     88% 0 mm 0 W/m2
02:42 -7.2 °C -8.8 °C 1022.6 hPa Calm     88% 0 mm 0 W/m2
02:48 -7.2 °C -8.8 °C 1022.6 hPa Calm     88% 0 mm 0 W/m2
02:54 -7.2 °C -8.8 °C 1022.6 hPa Calm     88% 0 mm 0 W/m2
03:00 -7.3 °C -9 °C 1022.6 hPa Calm     88% 0 mm 0 W/m2
03:06 -7.4 °C -9.1 °C 1022.6 hPa Calm     88% 0 mm 0 W/m2
03:12 -7.5 °C -9.2 °C 1022.6 hPa Calm     88% 0 mm 0 W/m2
03:18 -7.6 °C -9.3 °C 1022.6 hPa Calm     88% 0 mm 0 W/m2
03:24 -7.6 °C -9.1 °C 1022.2 hPa Calm     89% 0 mm 0 W/m2
03:30 -7.5 °C -9 °C 1022.2 hPa Calm     89% 0 mm 0 W/m2
03:36 -7.6 °C -9.1 °C 1022.6 hPa Calm     89% 0 mm 0 W/m2
03:42 -7.6 °C -9.1 °C 1022.6 hPa Calm     89% 0 mm 0 W/m2
03:48 -7.6 °C -9.1 °C 1022.6 hPa Calm     89% 0 mm 0 W/m2
03:54 -7.6 °C -9.1 °C 1022.6 hPa Calm     89% 0 mm 0 W/m2
04:00 -7.7 °C -9.2 °C 1022.6 hPa Calm     89% 0 mm 0 W/m2
04:06 -7.8 °C -9.3 °C 1022.6 hPa Calm     89% 0 mm 0 W/m2
04:12 -7.9 °C -9.4 °C 1022.6 hPa Calm     89% 0 mm 0 W/m2
04:18 -8 °C -9.5 °C 1022.6 hPa Calm     89% 0 mm 0 W/m2
04:24 -8 °C -9.5 °C 1022.6 hPa Calm     89% 0 mm 0 W/m2
04:30 -8.1 °C -9.6 °C 1022.6 hPa Calm     89% 0 mm 0 W/m2
04:36 -8.2 °C -9.7 °C 1022.6 hPa Calm     89% 0 mm 0 W/m2
04:42 -8.2 °C -9.7 °C 1022.9 hPa Calm     89% 0 mm 0 W/m2
04:48 -8.2 °C -9.7 °C 1022.9 hPa Calm     89% 0 mm 0 W/m2
04:54 -8.2 °C -9.7 °C 1022.9 hPa Calm     89% 0 mm 0 W/m2
05:00 -8.2 °C -9.7 °C 1022.9 hPa Calm     89% 0 mm 0 W/m2
05:06 -8.2 °C -9.7 °C 1022.9 hPa Calm     89% 0 mm 0 W/m2
05:12 -8.2 °C -9.7 °C 1022.9 hPa Calm     89% 0 mm 0 W/m2
05:18 -8.1 °C -9.6 °C 1022.9 hPa Calm     89% 0 mm 0 W/m2
05:24 -8.2 °C -9.7 °C 1022.9 hPa Calm     89% 0 mm 0 W/m2
05:30 -8.1 °C -9.6 °C 1022.9 hPa Calm     89% 0 mm 0 W/m2
05:36 -8.1 °C -9.6 °C 1022.9 hPa Calm     89% 0 mm 0 W/m2
05:42 -8.1 °C -9.6 °C 1022.9 hPa Calm     89% 0 mm 0 W/m2
05:48 -8.1 °C -9.6 °C 1022.9 hPa Calm     89% 0 mm 0 W/m2
05:54 -8.1 °C -9.6 °C 1022.9 hPa Calm     89% 0 mm 0 W/m2
06:00 -8.1 °C -9.6 °C 1023.2 hPa Calm     89% 0 mm 0 W/m2
06:06 -8.1 °C -9.6 °C 1023.2 hPa Calm     89% 0 mm 0 W/m2
06:12 -8.2 °C -9.7 °C 1023.2 hPa Calm     89% 0 mm 0 W/m2
06:18 -8.2 °C -9.7 °C 1023.2 hPa Calm     89% 0 mm 0 W/m2
06:24 -8.2 °C -9.7 °C 1023.2 hPa Calm     89% 0 mm 0 W/m2
06:32 -7.9 °C -9.3 °C 1022.9 hPa Calm     90% 0 mm 0 W/m2
06:38 -8 °C -9.3 °C 1022.9 hPa Calm     90% 0 mm 0 W/m2
06:44 -8 °C -9.3 °C 1022.9 hPa Calm     90% 0 mm 0 W/m2
06:50 -8 °C -9.3 °C 1022.9 hPa Calm     90% 0 mm 0 W/m2
06:56 -8 °C -9.3 °C 1022.9 hPa Calm     90% 0 mm 0 W/m2
07:02 -8 °C -9.3 °C 1022.9 hPa Calm     90% 0 mm 0 W/m2
07:08 -8.1 °C -9.4 °C 1022.9 hPa Calm     90% 0 mm 7 W/m2
07:14 -8.1 °C -9.4 °C 1022.6 hPa Calm     90% 0 mm 11 W/m2
07:20 -7.9 °C -9.3 °C 1022.6 hPa Calm     90% 0 mm 16 W/m2
07:26 -7.9 °C -9.3 °C 1022.6 hPa Calm     90% 0 mm 21 W/m2
07:32 -7.8 °C -9.2 °C 1022.9 hPa Calm     90% 0 mm 25 W/m2
07:38 -7.8 °C -9.1 °C 1022.9 hPa Calm     90% 0 mm 33 W/m2
07:44 -7.7 °C -9 °C 1022.9 hPa Calm     90% 0 mm 44 W/m2
07:50 -7.4 °C -8.8 °C 1022.9 hPa Calm     90% 0 mm 40 W/m2
07:56 -7.3 °C -8.7 °C 1022.9 hPa Calm     90% 0 mm 51 W/m2
08:02 -7.1 °C -8.5 °C 1022.9 hPa Calm     90% 0 mm 53 W/m2
08:08 -6.9 °C -8.3 °C 1022.9 hPa Calm     90% 0 mm 56 W/m2
08:14 -6.8 °C -8.2 °C 1022.9 hPa Calm     90% 0 mm 67 W/m2
08:20 -6.7 °C -8.1 °C 1022.9 hPa Calm     90% 0 mm 62 W/m2
08:26 -6.4 °C -7.8 °C 1022.9 hPa Calm     90% 0 mm 54 W/m2
08:32 -5.9 °C -7.3 °C 1022.6 hPa Calm     90% 0 mm 74 W/m2
08:38 -5.6 °C -6.8 °C 1022.6 hPa Calm     91% 0 mm 97 W/m2
08:44 -5.2 °C -6.4 °C 1022.6 hPa Calm     91% 0 mm 102 W/m2
08:50 -4.7 °C -5.9 °C 1022.6 hPa Calm     91% 0 mm 113 W/m2
08:56 -4.3 °C -5.5 °C 1022.6 hPa Calm     91% 0 mm 113 W/m2
09:02 -3.8 °C -5.1 °C 1022.6 hPa Calm   1.6 km/h 91% 0 mm 116 W/m2
09:08 -3.4 °C -4.7 °C 1022.2 hPa NNW 1.6 km/h 3.2 km/h 91% 0 mm 128 W/m2
09:14 -3.1 °C -4.3 °C 1021.9 hPa NNW 1.6 km/h 1.6 km/h 91% 0 mm 123 W/m2
09:20 -2.7 °C -4 °C 1021.9 hPa Calm     91% 0 mm 130 W/m2
09:26 -2.4 °C -3.7 °C 1021.9 hPa Calm   3.2 km/h 91% 0 mm 139 W/m2
09:32 -2.2 °C -3.4 °C 1021.6 hPa East 3.2 km/h 3.2 km/h 91% 0 mm 149 W/m2
09:38 -1.8 °C -3.1 °C 1021.6 hPa SSE 3.2 km/h 4.8 km/h 91% 0 mm 153 W/m2
09:44 -1.6 °C -3 °C 1021.6 hPa SE 3.2 km/h 6.4 km/h 90% 0 mm 163 W/m2
09:50 -1.3 °C -2.8 °C 1021.6 hPa SE 1.6 km/h 1.6 km/h 90% 0 mm 165 W/m2
09:56 -1.1 °C -2.7 °C 1021.6 hPa SE 1.6 km/h 3.2 km/h 89% 0 mm 165 W/m2
10:02 -0.9 °C -2.6 °C 1021.6 hPa SE 3.2 km/h 3.2 km/h 88% 0 mm 181 W/m2
10:08 -0.7 °C -2.6 °C 1021.6 hPa SE 1.6 km/h 4.8 km/h 87% 0 mm 185 W/m2
10:14 -0.4 °C -2.3 °C 1021.6 hPa SE 1.6 km/h 1.6 km/h 87% 0 mm 200 W/m2
10:20 -0.2 °C -2.2 °C 1021.6 hPa Calm   1.6 km/h 86% 0 mm 279 W/m2
10:26 0.2 °C -2.1 °C 1021.6 hPa Calm   1.6 km/h 85% 0 mm 207 W/m2
10:32 0.4 °C -1.9 °C 1021.6 hPa Calm   1.6 km/h 84% 0 mm 218 W/m2
10:38 0.6 °C -2.2 °C 1021.2 hPa Calm   1.6 km/h 82% 0 mm 185 W/m2
10:44 0.6 °C -2.2 °C 1020.9 hPa SSE 1.6 km/h 4.8 km/h 82% 0 mm 179 W/m2
10:50 0.4 °C -2.3 °C 1021.2 hPa SSE 1.6 km/h 1.6 km/h 82% 0 mm 216 W/m2
10:56 0.5 °C -2.2 °C 1021.2 hPa Calm   1.6 km/h 82% 0 mm 218 W/m2
11:02 0.8 °C -1.9 °C 1021.2 hPa Calm     82% 0 mm 227 W/m2
11:08 1.2 °C -1.6 °C 1021.2 hPa Calm   1.6 km/h 82% 0 mm 265 W/m2
11:14 1.3 °C -1.7 °C 1021.2 hPa Calm     80% 0 mm 269 W/m2
11:20 1.4 °C -1.6 °C 1020.9 hPa Calm     80% 0 mm 211 W/m2
11:26 1.5 °C -1.7 °C 1020.9 hPa Calm     79% 0 mm 188 W/m2
11:32 1.4 °C -1.8 °C 1020.9 hPa Calm   3.2 km/h 79% 0 mm 202 W/m2
11:38 1.3 °C -1.9 °C 1021.2 hPa Calm   3.2 km/h 79% 0 mm 283 W/m2
11:44 1.4 °C -1.6 °C 1021.2 hPa Calm     80% 0 mm 288 W/m2
11:50 1.7 °C -1.7 °C 1021.2 hPa Calm     78% 0 mm 267 W/m2
11:56 1.9 °C -1.6 °C 1021.2 hPa Calm     78% 0 mm 283 W/m2
12:02 2 °C -1.8 °C 1021.6 hPa SSE 1.6 km/h 3.2 km/h 76% 0 mm 304 W/m2
12:08 2.3 °C -1.5 °C 1021.6 hPa Calm   3.2 km/h 76% 0 mm 322 W/m2
12:14 2.3 °C -1.8 °C 1021.6 hPa Calm   1.6 km/h 74% 0 mm 323 W/m2
12:20 2.4 °C -1.7 °C 1021.6 hPa WSW 1.6 km/h 1.6 km/h 74% 0 mm 334 W/m2
12:26 2.7 °C -1.7 °C 1021.2 hPa WSW 1.6 km/h 8 km/h 73% 0 mm 360 W/m2
12:32 2.7 °C -1.7 °C 1021.2 hPa WSW 1.6 km/h 1.6 km/h 73% 0 mm 396 W/m2
12:38 2.9 °C -1.7 °C 1021.2 hPa WSW 1.6 km/h 3.2 km/h 72% 0 mm 401 W/m2
12:44 3 °C -1.7 °C 1021.2 hPa WSW 1.6 km/h 3.2 km/h 71% 0 mm 390 W/m2
12:50 3.2 °C -1.7 °C 1021.2 hPa SW 1.6 km/h 1.6 km/h 70% 0 mm 394 W/m2
12:56 3.2 °C -1.7 °C 1021.2 hPa West 3.2 km/h 4.8 km/h 70% 0 mm 403 W/m2
13:02 3.1 °C -1.8 °C 1021.2 hPa SSW 4.8 km/h 8 km/h 70% 0 mm 381 W/m2
13:08 3.4 °C -1.6 °C 1021.2 hPa WSW 3.2 km/h 8 km/h 70% 0 mm 371 W/m2
13:14 3.6 °C -1.6 °C 1020.9 hPa West 1.6 km/h 3.2 km/h 69% 0 mm 390 W/m2
13:20 3.6 °C -1.6 °C 1020.9 hPa WNW 1.6 km/h 3.2 km/h 69% 0 mm 422 W/m2
13:26 3.6 °C -1.7 °C 1020.9 hPa WSW 3.2 km/h 6.4 km/h 68% 0 mm 436 W/m2
13:32 3.8 °C -1.9 °C 1020.9 hPa West 3.2 km/h 3.2 km/h 66% 0 mm 424 W/m2
13:38 3.8 °C -1.8 °C 1020.9 hPa West 3.2 km/h 9.7 km/h 67% 0 mm 404 W/m2
13:44 3.8 °C -1.8 °C 1020.9 hPa WSW 3.2 km/h 4.8 km/h 67% 0 mm 403 W/m2
13:50 3.9 °C -1.7 °C 1020.9 hPa WSW 3.2 km/h 4.8 km/h 67% 0 mm 417 W/m2
13:56 4 °C -1.8 °C 1020.5 hPa SW 3.2 km/h 6.4 km/h 66% 0 mm 348 W/m2
14:02 4 °C -1.6 °C 1020.5 hPa SW 1.6 km/h 3.2 km/h 67% 0 mm 297 W/m2
14:08 4.2 °C -1.6 °C 1020.5 hPa West 1.6 km/h 3.2 km/h 66% 0 mm 292 W/m2
14:14 3.9 °C -1.9 °C 1020.5 hPa West 3.2 km/h 4.8 km/h 66% 0 mm 299 W/m2
14:20 3.8 °C -2 °C 1020.2 hPa SW 4.8 km/h 4.8 km/h 66% 0 mm 315 W/m2
14:26 3.8 °C -1.7 °C 1020.2 hPa SSW 3.2 km/h 8 km/h 67% 0 mm 355 W/m2
14:32 4 °C -1.8 °C 1019.9 hPa WSW 3.2 km/h 4.8 km/h 66% 0 mm 346 W/m2
14:38 4.1 °C -1.7 °C 1019.9 hPa SW 3.2 km/h 4.8 km/h 66% 0 mm 304 W/m2
14:44 4.1 °C -1.9 °C 1019.5 hPa SW 1.6 km/h 3.2 km/h 65% 0 mm 309 W/m2
14:50 4.1 °C -1.9 °C 1019.5 hPa SW 1.6 km/h 1.6 km/h 65% 0 mm 285 W/m2
14:56 3.8 °C -2 °C 1019.5 hPa SSW 1.6 km/h 4.8 km/h 66% 0 mm 283 W/m2
15:02 4 °C -1.8 °C 1019.2 hPa Calm     66% 0 mm 330 W/m2
15:08 4.4 °C -1.6 °C 1019.2 hPa Calm     65% 0 mm 323 W/m2
15:14 4.3 °C -1.9 °C 1019.2 hPa SSW 1.6 km/h 1.6 km/h 64% 0 mm 309 W/m2
15:20 4.2 °C -1.8 °C 1019.2 hPa SSW 1.6 km/h 1.6 km/h 65% 0 mm 316 W/m2
15:26 4.5 °C -1.7 °C 1018.8 hPa SSW 1.6 km/h 1.6 km/h 64% 0 mm 288 W/m2
15:32 4.3 °C -1.9 °C 1018.8 hPa SW 1.6 km/h 1.6 km/h 64% 0 mm 269 W/m2
15:38 4.4 °C -1.8 °C 1018.8 hPa SW 1.6 km/h 3.2 km/h 64% 0 mm 267 W/m2
15:44 4.3 °C -1.9 °C 1018.5 hPa SW 1.6 km/h 4.8 km/h 64% 0 mm 276 W/m2
15:50 4.5 °C -1.7 °C 1018.5 hPa Calm     64% 0 mm 221 W/m2
15:56 4.4 °C -1.8 °C 1018.2 hPa Calm     64% 0 mm 225 W/m2
16:02 4.3 °C -1.9 °C 1017.8 hPa Calm     64% 0 mm 221 W/m2
16:08 4.3 °C -1.9 °C 1017.8 hPa Calm     64% 0 mm 190 W/m2
16:14 4.6 °C -1.8 °C 1017.8 hPa Calm     63% 0 mm 195 W/m2
16:20 4.7 °C -1.8 °C 1017.8 hPa Calm   1.6 km/h 63% 0 mm 188 W/m2
16:26 4.5 °C -1.9 °C 1017.8 hPa Calm   4.8 km/h 63% 0 mm 200 W/m2
16:32 4.4 °C -2 °C 1017.8 hPa SW 1.6 km/h 1.6 km/h 63% 0 mm 216 W/m2
16:38 4.4 °C -2.1 °C 1017.8 hPa SW 3.2 km/h 3.2 km/h 63% 0 mm 190 W/m2
16:44 4.2 °C -2.2 °C 1017.5 hPa SW 1.6 km/h 3.2 km/h 63% 0 mm 151 W/m2
16:50 4.3 °C -2.1 °C 1017.5 hPa SW 1.6 km/h 1.6 km/h 63% 0 mm 160 W/m2
16:56 4.3 °C -1.9 °C 1017.5 hPa SW 1.6 km/h 1.6 km/h 64% 0 mm 146 W/m2
17:02 4.4 °C -2 °C 1017.5 hPa Calm   1.6 km/h 63% 0 mm 125 W/m2
17:08 4.4 °C -2.1 °C 1017.5 hPa Calm   1.6 km/h 63% 0 mm 114 W/m2
17:14 4.4 °C -2.1 °C 1017.2 hPa Calm     63% 0 mm 113 W/m2
17:20 4.4 °C -2.1 °C 1017.2 hPa Calm     63% 0 mm 105 W/m2
17:26 4.3 °C -2.1 °C 1017.2 hPa Calm     63% 0 mm 100 W/m2
17:32 4.4 °C -2.1 °C 1017.2 hPa Calm   1.6 km/h 63% 0 mm 91 W/m2
17:38 4.3 °C -2.1 °C 1017.2 hPa Calm   1.6 km/h 63% 0 mm 79 W/m2
17:44 4.3 °C -2.2 °C 1017.2 hPa Calm     63% 0 mm 79 W/m2
17:50 4.3 °C -2.2 °C 1016.8 hPa Calm     63% 0 mm 63 W/m2
17:56 4.3 °C -2.2 °C 1016.8 hPa Calm     63% 0 mm 56 W/m2
18:02 4.2 °C -2.1 °C 1016.8 hPa Calm     64% 0 mm 49 W/m2
18:08 4.1 °C -2.1 °C 1016.8 hPa Calm   3.2 km/h 64% 0 mm 40 W/m2
18:14 4.1 °C -2.2 °C 1016.8 hPa Calm     64% 0 mm 30 W/m2
18:20 4 °C -2.2 °C 1016.8 hPa Calm     64% 0 mm 26 W/m2
18:26 4 °C -2.2 °C 1016.8 hPa Calm     64% 0 mm 25 W/m2
18:32 3.9 °C -2.3 °C 1016.8 hPa Calm     64% 0 mm 28 W/m2
18:38 3.9 °C -2.3 °C 1016.8 hPa Calm     64% 0 mm 26 W/m2
18:44 3.9 °C -2.3 °C 1016.8 hPa Calm     64% 0 mm 21 W/m2
18:50 3.8 °C -2.2 °C 1016.8 hPa Calm     65% 0 mm 16 W/m2
18:56 3.8 °C -2.2 °C 1016.5 hPa Calm     65% 0 mm 18 W/m2
19:02 3.7 °C -2.3 °C 1016.5 hPa Calm     65% 0 mm 16 W/m2
19:14 3.6 °C -2.2 °C 1016.5 hPa Calm     66% 0 mm 7 W/m2
19:20 3.4 °C -2.3 °C 1016.5 hPa Calm     66% 0 mm 7 W/m2
19:26 3.3 °C -2.2 °C 1016.1 hPa Calm     67% 0 mm 0 W/m2
19:32 3 °C -2.1 °C 1016.1 hPa Calm     69% 0 mm 0 W/m2
19:38 2.7 °C -2.3 °C 1016.5 hPa Calm     70% 0 mm 0 W/m2
19:44 2.5 °C -2.4 °C 1016.5 hPa Calm     70% 0 mm 0 W/m2
19:50 2.4 °C -2.3 °C 1016.5 hPa Calm     71% 0 mm 0 W/m2
19:56 2.3 °C -2.3 °C 1016.5 hPa Calm     72% 0 mm 0 W/m2
20:02 2.1 °C -2.4 °C 1016.5 hPa Calm     72% 0 mm 0 W/m2
20:08 2.1 °C -2.4 °C 1016.5 hPa Calm     72% 0 mm 0 W/m2
20:14 2 °C -2.5 °C 1016.5 hPa Calm     72% 0 mm 0 W/m2
20:20 2 °C -2.3 °C 1016.5 hPa Calm     73% 0 mm 0 W/m2
20:26 2.1 °C -2.3 °C 1016.8 hPa Calm     73% 0 mm 0 W/m2
20:32 2 °C -2.2 °C 1016.8 hPa Calm     74% 0 mm 0 W/m2
20:38 1.9 °C -2.2 °C 1016.5 hPa Calm     74% 0 mm 0 W/m2
20:44 1.9 °C -2.2 °C 1016.5 hPa Calm     74% 0 mm 0 W/m2
20:50 1.9 °C -2.3 °C 1016.5 hPa Calm     74% 0 mm 0 W/m2
20:56 1.8 °C -2.3 °C 1016.8 hPa Calm     74% 0 mm 0 W/m2
21:02 1.9 °C -2.1 °C 1016.8 hPa Calm     75% 0 mm 0 W/m2
21:08 1.8 °C -2.1 °C 1016.8 hPa Calm     75% 0 mm 0 W/m2
21:14 1.8 °C -2.2 °C 1016.8 hPa Calm     75% 0 mm 0 W/m2
21:20 1.8 °C -2.1 °C 1016.8 hPa Calm     75% 0 mm 0 W/m2
21:26 1.8 °C -2.1 °C 1016.8 hPa Calm     75% 0 mm 0 W/m2
21:32 1.9 °C -2.1 °C 1016.8 hPa Calm     75% 0 mm 0 W/m2
21:38 1.8 °C -2.1 °C 1016.8 hPa Calm     75% 0 mm 0 W/m2
21:44 1.7 °C -2.2 °C 1016.5 hPa Calm     75% 0 mm 0 W/m2
21:50 1.6 °C -2.2 °C 1016.5 hPa Calm     76% 0 mm 0 W/m2
21:56 1.6 °C -2.2 °C 1016.5 hPa Calm     76% 0 mm 0 W/m2
22:02 1.4 °C -2.2 °C 1016.1 hPa Calm     77% 0 mm 0 W/m2
22:08 1.3 °C -2.3 °C 1016.1 hPa Calm     77% 0 mm 0 W/m2
22:14 1.3 °C -2.3 °C 1016.1 hPa Calm     77% 0 mm 0 W/m2
22:20 1.3 °C -2.3 °C 1016.1 hPa Calm     77% 0 mm 0 W/m2
22:26 1.2 °C -2.2 °C 1016.1 hPa Calm     78% 0 mm 0 W/m2
22:32 1.2 °C -2.2 °C 1016.1 hPa Calm     78% 0 mm 0 W/m2
22:38 1.2 °C -2.2 °C 1016.1 hPa Calm     78% 0 mm 0 W/m2
22:44 1.1 °C -2.1 °C 1016.1 hPa Calm     79% 0 mm 0 W/m2
22:50 1.1 °C -2.3 °C 1016.1 hPa Calm     78% 0 mm 0 W/m2
22:56 1.1 °C -2.2 °C 1016.1 hPa Calm     79% 0 mm 0 W/m2
23:02 0.9 °C -2.1 °C 1016.1 hPa Calm     80% 0 mm 0 W/m2
23:08 0.9 °C -2.3 °C 1015.8 hPa Calm     79% 0 mm 0 W/m2
23:14 0.9 °C -2.3 °C 1015.8 hPa Calm     79% 0 mm 0 W/m2
23:20 0.9 °C -2.3 °C 1015.8 hPa Calm     79% 0 mm 0 W/m2
23:26 0.8 °C -2.4 °C 1015.8 hPa Calm     79% 0 mm 0 W/m2
23:32 0.8 °C -2.4 °C 1015.8 hPa Calm     79% 0 mm 0 W/m2
23:38 0.8 °C -2.4 °C 1015.8 hPa Calm     79% 0 mm 0 W/m2
23:44 0.8 °C -2.4 °C 1015.8 hPa Calm     79% 0 mm 0 W/m2
23:50 0.8 °C -2.4 °C 1015.8 hPa Calm     79% 0 mm 0 W/m2
23:56 0.9 °C -2.3 °C 1015.8 hPa Calm     79% 0 mm 0 W/m2
Country Meadow, Clay, NY, USA
Compliments of Weather Underground - 2 mb